Time;durP1;ratioP1;P1;durP2;ratioP2;P2;SDS_P1;SDS_P2;PMS_P1;PMS_P2;Temp;Humidity;BMP_temperature;BMP_pressure;BME280_temperature;BME280_humidity;BME280_pressure;Samples;Min_cycle;Max_cycle;Signal;HPM_P1;HPM_P2
2023/10/01 00:00:46;;;;;;;;;;;;;;;;;;5095283;28;20323;-76
2023/10/01 00:03:14;;;;;;;;;;;;;;;;;;5061889;28;19916;-75
2023/10/01 00:05:41;;;;;;;;;;;;;;;;;;5063114;28;19958;-76
2023/10/01 00:08:08;;;;;;;;;;;;;;;;;;5080248;28;19913;-76
2023/10/01 00:10:41;;;;;;;;;;;;;;;;;;5056815;28;19909;-75
2023/10/01 00:13:15;;;;;;;;;;;;;;;;;;5061938;28;19913;-76
2023/10/01 00:15:41;;;;;;;;;;;;;;;;;;5058698;28;20007;-76
2023/10/01 00:18:14;;;;;;;;;;;;;;;;;;5062005;28;20363;-76
2023/10/01 00:20:40;;;;;;;;;;;;;;;;;;5087502;28;20372;-76
2023/10/01 00:23:06;;;;;;;;;;;;;;;;;;5056600;28;19913;-76
2023/10/01 00:25:32;;;;;;;;;;;;;;;;;;5079194;28;20291;-76
2023/10/01 00:27:58;;;;;;;;;;;;;;;;;;5069556;28;20062;-74
2023/10/01 00:30:23;;;;;;;;;;;;;;;;;;5064618;28;19931;-75
2023/10/01 00:32:49;;;;;;;;;;;;;;;;;;5059092;28;19908;-75
2023/10/01 00:35:18;;;;;;;;;;;;;;;;;;5085436;28;19950;-76
2023/10/01 00:37:47;;;;;;;;;;;;;;;;;;5078454;28;19963;-76
2023/10/01 00:40:17;;;;;;;;;;;;;;;;;;5065918;28;19915;-75
2023/10/01 00:42:52;;;;;;;;;;;;;;;;;;5099962;28;19935;-76
2023/10/01 00:45:18;;;;;;;;;;;;;;;;;;5086393;22;19976;-70
2023/10/01 00:47:46;;;;;;;;;;;;;;;;;;5058853;28;19966;-74
2023/10/01 00:50:16;;;;;;;;;;;;;;;;;;5046908;28;19962;-75
2023/10/01 00:52:44;;;;;;;;;;;;;;;;;;5046574;28;19923;-75
2023/10/01 00:55:12;;;;;;;;;;;;;;;;;;5048339;28;20407;-75
2023/10/01 00:57:48;;;;;;;;;;;;;;;;;;5044369;28;19909;-75
2023/10/01 01:00:16;;;;;;;;;;;;;;;;;;5047218;28;19958;-75
2023/10/01 01:03:00;;;;;;;;;;;;;;;;;;5058698;28;20293;-76
2023/10/01 01:06:17;;;;;;;;;;;;;;;;;;5043546;28;20066;-74
2023/10/01 01:11:12;;;;;;;;;;;;;;;;;;5038558;28;19917;-75
2023/10/01 01:13:38;;;;;;;;;;;;;;;;;;5043538;28;20363;-74
2023/10/01 01:16:05;;;;;;;;;;;;;;;;;;5057947;28;19909;-74
2023/10/01 01:18:34;;;;;;;;;;;;;;;;;;5040816;28;19914;-74
2023/10/01 01:21:05;;;;;;;;;;;;;;;;;;5042716;28;19909;-73
2023/10/01 01:23:31;;;;;;;;;;;;;;;;;;5039910;28;20265;-73
2023/10/01 01:25:56;;;;;;;;;;;;;;;;;;5058709;28;19912;-73
2023/10/01 01:28:30;;;;;;;;;;;;;;;;;;5058207;28;20340;-73
2023/10/01 01:30:58;;;;;;;;;;;;;;;;;;5060103;28;19913;-73
2023/10/01 01:33:31;;;;;;;;;;;;;;;;;;5061767;28;20290;-73
2023/10/01 01:35:57;;;;;;;;;;;;;;;;;;5058427;28;19955;-74
2023/10/01 01:38:24;;;;;;;;;;;;;;;;;;5058327;28;19909;-73
2023/10/01 01:40:51;;;;;;;;;;;;;;;;;;5067298;28;19915;-73
2023/10/01 01:43:21;;;;;;;;;;;;;;;;;;5041999;28;19916;-73
2023/10/01 01:45:54;;;;;;;;;;;;;;;;;;5067887;28;19912;-73
2023/10/01 01:48:53;;;;;;;;;;;;;;;;;;5058215;28;19909;-73
2023/10/01 01:51:17;;;;;;;;;;;;;;;;;;5047396;28;19916;-74
2023/10/01 01:53:46;;;;;;;;;;;;;;;;;;5063354;28;19995;-75
2023/10/01 01:56:18;;;;;;;;;;;;;;;;;;5050541;28;19913;-75
2023/10/01 01:58:44;;;;;;;;;;;;;;;;;;5070794;28;19909;-75
2023/10/01 02:03:39;;;;;;;;;;;;;;;;;;5066284;28;19995;-74
2023/10/01 02:06:06;;;;;;;;;;;;;;;;;;5062217;28;20012;-75
2023/10/01 02:08:44;;;;;;;;;;;;;;;;;;5062066;28;20387;-74
2023/10/01 02:11:09;;;;;;;;;;;;;;;;;;5065479;28;19947;-74
2023/10/01 02:13:40;;;;;;;;;;;;;;;;;;5073058;28;19909;-74
2023/10/01 02:16:18;;;;;;;;;;;;;;;;;;5062143;28;19916;-74
2023/10/01 02:18:55;;;;;;;;;;;;;;;;;;5055188;28;19909;-74
2023/10/01 02:21:42;;;;;;;;;;;;;;;;;;5069256;28;19912;-75
2023/10/01 02:24:11;;;;;;;;;;;;;;;;;;5062919;28;19912;-73
2023/10/01 02:26:37;;;;;;;;;;;;;;;;;;5062033;28;19916;-72
2023/10/01 02:29:03;;;;;;;;;;;;;;;;;;5061895;28;19912;-73
2023/10/01 02:31:34;;;;;;;;;;;;;;;;;;5064906;28;19908;-71
2023/10/01 02:34:00;;;;;;;;;;;;;;;;;;5061204;28;20281;-71
2023/10/01 02:36:26;;;;;;;;;;;;;;;;;;5061347;28;19909;-72
2023/10/01 02:38:53;;;;;;;;;;;;;;;;;;5044442;28;19936;-72
2023/10/01 02:41:19;;;;;;;;;;;;;;;;;;5064808;28;19916;-71
2023/10/01 02:43:45;;;;;;;;;;;;;;;;;;5061023;28;20581;-71
2023/10/01 02:46:12;;;;;;;;;;;;;;;;;;5061089;28;19917;-72
2023/10/01 02:48:40;;;;;;;;;;;;;;;;;;5061120;28;20365;-72
2023/10/01 02:51:15;;;;;;;;;;;;;;;;;;5046072;28;19908;-73
2023/10/01 02:53:42;;;;;;;;;;;;;;;;;;5045319;28;20299;-73
2023/10/01 02:56:12;;;;;;;;;;;;;;;;;;5043142;28;19916;-73
2023/10/01 02:58:45;;;;;;;;;;;;;;;;;;5061301;28;19999;-74
2023/10/01 03:01:13;;;;;;;;;;;;;;;;;;5040268;28;19916;-74
2023/10/01 03:03:39;;;;;;;;;;;;;;;;;;5065323;28;19913;-74
2023/10/01 03:06:11;;;;;;;;;;;;;;;;;;5060778;28;19909;-73
2023/10/01 03:08:41;;;;;;;;;;;;;;;;;;5043756;28;20390;-74
2023/10/01 03:11:08;;;;;;;;;;;;;;;;;;5054954;28;19908;-74
2023/10/01 03:13:36;;;;;;;;;;;;;;;;;;5064285;28;19909;-74
2023/10/01 03:18:47;;;;;;;;;;;;;;;;;;5062806;28;20402;-73
2023/10/01 03:22:08;;;;;;;;;;;;;;;;;;5064639;28;19909;-73
2023/10/01 03:24:00;;;;;;;;;;;;;;;;;;5065432;28;19969;-74
2023/10/01 03:26:26;;;;;;;;;;;;;;;;;;5072669;28;19963;-74
2023/10/01 03:31:37;;;;;;;;;;;;;;;;;;5074147;28;19932;-72
2023/10/01 03:34:04;;;;;;;;;;;;;;;;;;5073232;28;20299;-74
2023/10/01 03:36:42;;;;;;;;;;;;;;;;;;5054973;28;19909;-73
2023/10/01 03:39:25;;;;;;;;;;;;;;;;;;5084486;28;19908;-73
2023/10/01 03:42:10;;;;;;;;;;;;;;;;;;5050946;28;19909;-73
2023/10/01 03:47:21;;;;;;;;;;;;;;;;;;5054463;28;19966;-75
2023/10/01 03:49:53;;;;;;;;;;;;;;;;;;5044378;28;20283;-73
2023/10/01 03:52:20;;;;;;;;;;;;;;;;;;5060554;28;19909;-73
2023/10/01 03:54:59;;;;;;;;;;;;;;;;;;;;;
2023/10/01 03:57:18;;;;;;;;;;;;;;;;;;5065091;28;19931;-74
2023/10/01 03:59:56;;;;;;;;;;;;;;;;;;5044262;28;19908;-74
2023/10/01 04:05:43;;;;;;;;;;;;;;;;;;;;;
2023/10/01 04:08:11;;;;;;;;;;;;;;;;;;5056159;28;19909;-74
2023/10/01 04:10:57;;;;;;;;;;;;;;;;;;5060169;28;19962;-74
2023/10/01 04:13:24;;;;;;;;;;;;;;;;;;5053474;28;19986;-72
2023/10/01 04:15:55;;;;;;;;;;;;;;;;;;5062213;28;20279;-74
2023/10/01 04:18:21;;;;;;;;;;;;;;;;;;5059793;28;19912;-73
2023/10/01 04:23:31;;;;;;;;;;;;;;;;;;5063340;28;19908;-73
2023/10/01 04:26:00;;;;;;;;;;;;;;;;;;5063073;28;19913;-73
2023/10/01 04:28:27;;;;;;;;;;;;;;;;;;5064512;28;19952;-73
2023/10/01 04:30:52;;;;;;;;;;;;;;;;;;5062095;28;19913;-72
2023/10/01 04:33:22;;;;;;;;;;;;;;;;;;5063035;28;19913;-73
2023/10/01 04:35:51;;;;;;;;;;;;;;;;;;5060906;28;20383;-72
2023/10/01 04:38:18;;;;;;;;;;;;;;;;;;5060884;28;19909;-73
2023/10/01 04:40:46;;;;;;;;;;;;;;;;;;5059844;28;20355;-72
2023/10/01 04:43:16;;;;;;;;;;;;;;;;;;5062211;28;20399;-72
2023/10/01 04:45:44;;;;;;;;;;;;;;;;;;5062415;28;20384;-72
2023/10/01 04:48:16;;;;;;;;;;;;;;;;;;5066430;28;20384;-73
2023/10/01 04:50:42;;;;;;;;;;;;;;;;;;5067965;28;19908;-73
2023/10/01 04:53:09;;;;;;;;;;;;;;;;;;5064549;28;19908;-73
2023/10/01 04:55:41;;;;;;;;;;;;;;;;;;5064674;28;19939;-73
2023/10/01 04:58:07;;;;;;;;;;;;;;;;;;5060960;28;20002;-73
2023/10/01 05:00:34;;;;;;;;;;;;;;;;;;5061445;28;20396;-71
2023/10/01 05:03:06;;;;;;;;;;;;;;;;;;5069555;28;19970;-74
2023/10/01 05:05:32;;;;;;;;;;;;;;;;;;5070817;28;19951;-72
2023/10/01 05:07:58;;;;;;;;;;;;;;;;;;5041666;28;20581;-72
2023/10/01 05:10:26;;;;;;;;;;;;;;;;;;5060114;28;19916;-72
2023/10/01 05:12:58;;;;;;;;;;;;;;;;;;5059648;28;19913;-71
2023/10/01 05:15:34;;;;;;;;;;;;;;;;;;5044141;28;19935;-73
2023/10/01 05:18:01;;;;;;;;;;;;;;;;;;5060266;28;20276;-71
2023/10/01 05:20:27;;;;;;;;;;;;;;;;;;5058998;28;19913;-72
2023/10/01 05:22:54;;;;;;;;;;;;;;;;;;5059876;28;20287;-72
2023/10/01 05:25:20;;;;;;;;;;;;;;;;;;5057757;28;19944;-72
2023/10/01 05:27:46;;;;;;;;;;;;;;;;;;5061853;28;19916;-72
2023/10/01 05:30:34;;;;;;;;;;;;;;;;;;5044923;28;20423;-73
2023/10/01 05:32:58;;;;;;;;;;;;;;;;;;5064729;28;19928;-73
2023/10/01 05:35:24;;;;;;;;;;;;;;;;;;5052304;28;19917;-73
2023/10/01 05:37:50;;;;;;;;;;;;;;;;;;5074856;28;19921;-71
2023/10/01 05:40:16;;;;;;;;;;;;;;;;;;5054453;28;19909;-73
2023/10/01 05:42:44;;;;;;;;;;;;;;;;;;5071639;28;20312;-73
2023/10/01 05:45:18;;;;;;;;;;;;;;;;;;5079188;28;19915;-72
2023/10/01 05:47:54;;;;;;;;;;;;;;;;;;5083405;28;19917;-73
2023/10/01 05:50:22;;;;;;;;;;;;;;;;;;5076318;28;19916;-72
2023/10/01 05:52:50;;;;;;;;;;;;;;;;;;5067446;28;19916;-70
2023/10/01 05:55:16;;;;;;;;;;;;;;;;;;5068407;28;19913;-72
2023/10/01 05:57:42;;;;;;;;;;;;;;;;;;5067686;28;19912;-72
2023/10/01 06:00:18;;;;;;;;;;;;;;;;;;5066273;28;20284;-71
2023/10/01 06:02:47;;;;;;;;;;;;;;;;;;5065941;28;19908;-71
2023/10/01 06:05:32;;;;;;;;;;;;;;;;;;5068214;28;19951;-71
2023/10/01 06:07:58;;;;;;;;;;;;;;;;;;5065443;28;20252;-72
2023/10/01 06:10:26;;;;;;;;;;;;;;;;;;5064951;28;19909;-71
2023/10/01 06:12:54;;;;;;;;;;;;;;;;;;5067253;28;19913;-72
2023/10/01 06:15:20;;;;;;;;;;;;;;;;;;5068059;28;19917;-72
2023/10/01 06:17:46;;;;;;;;;;;;;;;;;;5048877;28;19909;-72
2023/10/01 06:20:23;;;;;;;;;;;;;;;;;;5065001;28;19913;-73
2023/10/01 06:22:49;;;;;;;;;;;;;;;;;;5066047;28;19956;-72
2023/10/01 06:25:15;;;;;;;;;;;;;;;;;;5068286;28;19931;-72
2023/10/01 06:27:41;;;;;;;;;;;;;;;;;;5049641;28;19956;-72
2023/10/01 06:30:08;;;;;;;;;;;;;;;;;;5065269;28;20007;-72
2023/10/01 06:32:36;;;;;;;;;;;;;;;;;;5066188;28;19915;-72
2023/10/01 06:35:02;;;;;;;;;;;;;;;;;;5067078;28;20003;-72
2023/10/01 06:37:50;;;;;;;;;;;;;;;;;;5068233;28;20384;-72
2023/10/01 06:40:31;;;;;;;;;;;;;;;;;;5040648;28;20004;-72
2023/10/01 06:43:00;;;;;;;;;;;;;;;;;;5061153;28;19970;-72
2023/10/01 06:45:42;;;;;;;;;;;;;;;;;;5088231;22;19908;-72
2023/10/01 06:48:08;;;;;;;;;;;;;;;;;;5054057;28;19924;-75
2023/10/01 06:50:35;;;;;;;;;;;;;;;;;;5053003;28;19909;-75
2023/10/01 06:53:03;;;;;;;;;;;;;;;;;;5049720;28;20295;-75
2023/10/01 06:55:30;;;;;;;;;;;;;;;;;;5053165;28;20329;-76
2023/10/01 06:57:59;;;;;;;;;;;;;;;;;;5049670;28;20406;-76
2023/10/01 07:00:32;;;;;;;;;;;;;;;;;;5050311;28;20344;-77
2023/10/01 07:03:16;;;;;;;;;;;;;;;;;;5051636;28;19912;-75
2023/10/01 07:05:45;;;;;;;;;;;;;;;;;;5044307;28;19913;-76
2023/10/01 07:08:11;;;;;;;;;;;;;;;;;;5051952;28;20011;-76
2023/10/01 07:10:37;;;;;;;;;;;;;;;;;;5055876;28;19955;-75
2023/10/01 07:13:07;;;;;;;;;;;;;;;;;;5044331;28;19932;-75
2023/10/01 07:15:36;;;;;;;;;;;;;;;;;;5043278;28;20257;-76
2023/10/01 07:18:13;;;;;;;;;;;;;;;;;;5038747;28;19943;-77
2023/10/01 07:20:39;;;;;;;;;;;;;;;;;;5054931;28;20003;-77
2023/10/01 07:23:06;;;;;;;;;;;;;;;;;;5043842;28;19979;-77
2023/10/01 07:25:38;;;;;;;;;;;;;;;;;;5043799;28;20312;-77
2023/10/01 07:28:05;;;;;;;;;;;;;;;;;;5039630;28;19909;-76
2023/10/01 07:30:45;;;;;;;;;;;;;;;;;;5047314;28;20007;-76
2023/10/01 07:33:11;;;;;;;;;;;;;;;;;;5044577;28;20399;-76
2023/10/01 07:35:37;;;;;;;;;;;;;;;;;;5044762;28;20288;-77
2023/10/01 07:38:03;;;;;;;;;;;;;;;;;;5058190;28;19909;-76
2023/10/01 07:40:50;;;;;;;;;;;;;;;;;;5051174;28;19913;-76
2023/10/01 07:43:15;;;;;;;;;;;;;;;;;;5062436;28;20423;-77
2023/10/01 07:45:55;;;;;;;;;;;;;;;;;;5053478;28;19921;-76
2023/10/01 07:48:21;;;;;;;;;;;;;;;;;;5058928;28;19975;-76
2023/10/01 07:50:47;;;;;;;;;;;;;;;;;;5051755;28;20372;-76
2023/10/01 07:53:13;;;;;;;;;;;;;;;;;;5043007;28;19952;-77
2023/10/01 07:55:42;;;;;;;;;;;;;;;;;;5043003;28;19920;-76
2023/10/01 07:58:23;;;;;;;;;;;;;;;;;;5050725;28;19916;-76
2023/10/01 08:00:58;;;;;;;;;;;;;;;;;;5053874;28;19909;-76
2023/10/01 08:06:10;;;;;;;;;;;;;;;;;;5060230;28;19962;-75
2023/10/01 08:08:37;;;;;;;;;;;;;;;;;;5044492;28;19915;-76
2023/10/01 08:11:03;;;;;;;;;;;;;;;;;;5043094;28;19915;-76
2023/10/01 08:13:30;;;;;;;;;;;;;;;;;;5049534;28;19909;-73
2023/10/01 08:16:01;;;;;;;;;;;;;;;;;;5060040;28;19924;-76
2023/10/01 08:18:39;;;;;;;;;;;;;;;;;;5052952;28;19912;-75
2023/10/01 08:21:15;;;;;;;;;;;;;;;;;;5052502;28;19909;-75
2023/10/01 08:23:52;;;;;;;;;;;;;;;;;;5045756;28;20269;-75
2023/10/01 08:29:08;;;;;;;;;;;;;;;;;;5053148;28;20268;-76
2023/10/01 08:32:07;;;;;;;;;;;;;;;;;;5061478;28;19909;-76
2023/10/01 08:34:28;;;;;;;;;;;;;;;;;;5048792;28;19913;-75
2023/10/01 08:36:55;;;;;;;;;;;;;;;;;;5063785;22;19984;-76
2023/10/01 08:39:33;;;;;;;;;;;;;;;;;;5080509;28;19908;-76
2023/10/01 08:41:59;;;;;;;;;;;;;;;;;;5087862;28;20509;-76
2023/10/01 08:44:30;;;;;;;;;;;;;;;;;;5073282;28;19999;-76
2023/10/01 08:46:56;;;;;;;;;;;;;;;;;;5065525;28;19909;-74
2023/10/01 08:49:30;;;;;;;;;;;;;;;;;;5079808;28;19918;-76
2023/10/01 08:54:43;;;;;;;;;;;;;;;;;;5072162;28;19923;-74
2023/10/01 08:57:22;;;;;;;;;;;;;;;;;;5071982;28;20018;-76
2023/10/01 08:59:53;;;;;;;;;;;;;;;;;;5070902;28;19916;-76
2023/10/01 09:02:19;;;;;;;;;;;;;;;;;;5071328;28;19916;-75
2023/10/01 09:04:48;;;;;;;;;;;;;;;;;;5077198;28;19990;-75
2023/10/01 09:07:26;;;;;;;;;;;;;;;;;;5071281;28;19939;-75
2023/10/01 09:10:00;;;;;;;;;;;;;;;;;;5068623;28;19958;-75
2023/10/01 09:12:26;;;;;;;;;;;;;;;;;;5076433;28;19915;-76
2023/10/01 09:14:54;;;;;;;;;;;;;;;;;;5072835;28;20006;-76
2023/10/01 09:17:28;;;;;;;;;;;;;;;;;;5070401;28;19915;-75
2023/10/01 09:20:06;;;;;;;;;;;;;;;;;;5070856;28;19948;-75
2023/10/01 09:25:01;;;;;;;;;;;;;;;;;;5071180;28;20306;-78
2023/10/01 09:27:30;;;;;;;;;;;;;;;;;;5070750;28;19919;-76
2023/10/01 09:29:57;;;;;;;;;;;;;;;;;;5071027;28;19973;-76
2023/10/01 09:32:47;;;;;;;;;;;;;;;;;;5071580;28;19916;-75
2023/10/01 09:35:30;;;;;;;;;;;;;;;;;;5072904;28;19912;-75
2023/10/01 09:37:56;;;;;;;;;;;;;;;;;;5068634;28;20391;-75
2023/10/01 09:42:57;;;;;;;;;;;;;;;;;;5071836;28;19908;-76
2023/10/01 09:45:26;;;;;;;;;;;;;;;;;;5071427;28;19995;-76
2023/10/01 09:47:56;;;;;;;;;;;;;;;;;;5072299;28;19991;-74
2023/10/01 09:50:22;;;;;;;;;;;;;;;;;;5081135;28;20368;-77
2023/10/01 09:52:48;;;;;;;;;;;;;;;;;;5070893;28;19917;-75
2023/10/01 09:55:26;;;;;;;;;;;;;;;;;;5076581;28;20303;-76
2023/10/01 09:57:52;;;;;;;;;;;;;;;;;;5071067;28;19908;-75
2023/10/01 10:00:20;;;;;;;;;;;;;;;;;;5076155;28;20282;-75
2023/10/01 10:02:55;;;;;;;;;;;;;;;;;;5072379;28;19963;-76
2023/10/01 10:05:28;;;;;;;;;;;;;;;;;;5070852;28;20379;-74
2023/10/01 10:07:54;;;;;;;;;;;;;;;;;;5073969;28;20303;-76
2023/10/01 10:10:24;;;;;;;;;;;;;;;;;;5070181;28;19916;-77
2023/10/01 10:12:53;;;;;;;;;;;;;;;;;;5070072;28;19977;-77
2023/10/01 10:15:19;;;;;;;;;;;;;;;;;;5070279;28;19920;-75
2023/10/01 10:17:45;;;;;;;;;;;;;;;;;;5066996;28;19909;-76
2023/10/01 10:20:26;;;;;;;;;;;;;;;;;;5065638;28;19915;-76
2023/10/01 10:22:52;;;;;;;;;;;;;;;;;;5074204;28;20463;-76
2023/10/01 10:25:18;;;;;;;;;;;;;;;;;;5074940;28;19998;-76
2023/10/01 10:27:44;;;;;;;;;;;;;;;;;;5073765;28;19963;-75
2023/10/01 10:30:14;;;;;;;;;;;;;;;;;;5074844;28;19909;-75
2023/10/01 10:32:44;;;;;;;;;;;;;;;;;;5074628;28;19915;-75
2023/10/01 10:35:14;;;;;;;;;;;;;;;;;;5065569;28;19913;-75
2023/10/01 10:37:56;;;;;;;;;;;;;;;;;;5072886;28;20398;-75
2023/10/01 10:42:47;;;;;;;;;;;;;;;;;;5074247;28;19908;-76
2023/10/01 10:45:20;;;;;;;;;;;;;;;;;;5074112;28;19917;-75
2023/10/01 10:47:46;;;;;;;;;;;;;;;;;;5074292;28;19931;-76
2023/10/01 10:50:15;;;;;;;;;;;;;;;;;;5074380;28;19909;-75
2023/10/01 10:52:41;;;;;;;;;;;;;;;;;;5073140;28;19915;-76
2023/10/01 10:55:15;;;;;;;;;;;;;;;;;;5075136;28;19916;-74
2023/10/01 10:57:48;;;;;;;;;;;;;;;;;;5073451;28;19916;-75
2023/10/01 11:00:23;;;;;;;;;;;;;;;;;;5067092;28;20422;-76
2023/10/01 11:02:55;;;;;;;;;;;;;;;;;;5073307;28;19908;-75
2023/10/01 11:05:24;;;;;;;;;;;;;;;;;;5073709;28;19908;-75
2023/10/01 11:07:58;;;;;;;;;;;;;;;;;;5080317;28;19916;-75
2023/10/01 11:10:24;;;;;;;;;;;;;;;;;;5073903;28;19908;-76
2023/10/01 11:12:54;;;;;;;;;;;;;;;;;;5072623;28;20383;-75
2023/10/01 11:17:47;;;;;;;;;;;;;;;;;;5075256;22;20315;-76
2023/10/01 11:20:22;;;;;;;;;;;;;;;;;;5073964;28;20312;-75
2023/10/01 11:22:49;;;;;;;;;;;;;;;;;;5087924;28;19961;-76
2023/10/01 11:25:19;;;;;;;;;;;;;;;;;;5067395;28;19912;-75
2023/10/01 11:27:45;;;;;;;;;;;;;;;;;;5036892;28;19998;-75
2023/10/01 11:30:15;;;;;;;;;;;;;;;;;;5053750;28;20368;-75
2023/10/01 11:32:44;;;;;;;;;;;;;;;;;;5028246;28;20062;-75
2023/10/01 11:35:31;;;;;;;;;;;;;;;;;;5046641;28;20011;-74
2023/10/01 11:37:57;;;;;;;;;;;;;;;;;;5046418;28;19909;-75
2023/10/01 11:40:45;;;;;;;;;;;;;;;;;;5032390;28;20388;-75
2023/10/01 11:43:08;;;;;;;;;;;;;;;;;;5049862;28;19909;-75
2023/10/01 11:45:35;;;;;;;;;;;;;;;;;;5048968;28;19909;-78
2023/10/01 11:48:19;;;;;;;;;;;;;;;;;;5035106;28;19975;-75
2023/10/01 11:50:50;;;;;;;;;;;;;;;;;;5045917;28;19912;-75
2023/10/01 11:53:16;;;;;;;;;;;;;;;;;;5049420;28;19909;-76
2023/10/01 11:55:42;;;;;;;;;;;;;;;;;;5029202;28;19913;-76
2023/10/01 11:58:16;;;;;;;;;;;;;;;;;;5057109;28;19916;-76
2023/10/01 12:00:59;;;;;;;;;;;;;;;;;;5050364;28;20338;-75
2023/10/01 12:03:25;;;;;;;;;;;;;;;;;;5057541;28;20024;-74
2023/10/01 12:05:53;;;;;;;;;;;;;;;;;;5043420;28;20400;-76
2023/10/01 12:08:34;;;;;;;;;;;;;;;;;;5052335;28;19958;-76
2023/10/01 12:11:26;;;;;;;;;;;;;;;;;;5051836;28;19916;-75
2023/10/01 12:14:04;;;;;;;;;;;;;;;;;;5044324;28;20579;-75
2023/10/01 12:16:30;;;;;;;;;;;;;;;;;;5034097;28;19962;-77
2023/10/01 12:19:22;;;;;;;;;;;;;;;;;;5051476;28;19913;-75
2023/10/01 12:21:47;;;;;;;;;;;;;;;;;;5045037;28;20289;-76
2023/10/01 12:24:13;;;;;;;;;;;;;;;;;;5050346;28;19916;-75
2023/10/01 12:26:47;;;;;;;;;;;;;;;;;;5053222;28;19909;-75
2023/10/01 12:29:17;;;;;;;;;;;;;;;;;;5034235;28;19995;-75
2023/10/01 12:31:46;;;;;;;;;;;;;;;;;;5049416;28;19952;-76
2023/10/01 12:34:19;;;;;;;;;;;;;;;;;;5050662;28;19909;-75
2023/10/01 12:36:46;;;;;;;;;;;;;;;;;;5032117;28;19909;-76
2023/10/01 12:44:31;;;;;;;;;;;;;;;;;;5044902;28;19932;-76
2023/10/01 12:47:00;;;;;;;;;;;;;;;;;;5051717;28;20011;-76
2023/10/01 12:49:26;;;;;;;;;;;;;;;;;;5040639;28;19991;-77
2023/10/01 12:51:55;;;;;;;;;;;;;;;;;;5041826;28;19998;-75
2023/10/01 12:54:27;;;;;;;;;;;;;;;;;;5053765;28;19920;-75
2023/10/01 12:57:03;;;;;;;;;;;;;;;;;;5032578;28;19920;-76
2023/10/01 12:59:38;;;;;;;;;;;;;;;;;;5046002;28;19909;-75
2023/10/01 13:02:04;;;;;;;;;;;;;;;;;;5036705;28;19917;-75
2023/10/01 13:04:32;;;;;;;;;;;;;;;;;;5052187;28;20039;-76
2023/10/01 13:07:03;;;;;;;;;;;;;;;;;;5051152;28;20277;-76
2023/10/01 13:12:16;;;;;;;;;;;;;;;;;;5037205;28;19913;-75
2023/10/01 13:14:42;;;;;;;;;;;;;;;;;;5044159;28;19916;-75
2023/10/01 13:17:19;;;;;;;;;;;;;;;;;;5048227;28;19917;-76
2023/10/01 13:19:48;;;;;;;;;;;;;;;;;;5048886;28;20035;-75
2023/10/01 13:22:16;;;;;;;;;;;;;;;;;;5056864;28;19913;-75
2023/10/01 13:24:42;;;;;;;;;;;;;;;;;;5031021;28;20385;-75
2023/10/01 13:27:10;;;;;;;;;;;;;;;;;;5029731;28;19916;-75
2023/10/01 13:29:36;;;;;;;;;;;;;;;;;;5040811;28;19964;-75
2023/10/01 13:32:03;;;;;;;;;;;;;;;;;;5057699;28;20472;-76
2023/10/01 13:37:26;;;;;;;;;;;;;;;;;;5041087;28;19916;-76
2023/10/01 13:40:19;;;;;;;;;;;;;;;;;;5056466;28;20380;-77
2023/10/01 14:10:16;;;;;;;;;;;;;;;;;;5040633;28;19961;-76
2023/10/01 14:12:42;;;;;;;;;;;;;;;;;;5054571;28;20292;-75
2023/10/01 14:15:23;;;;;;;;;;;;;;;;;;5053792;28;19912;-74
2023/10/01 14:17:52;;;;;;;;;;;;;;;;;;5047443;28;20074;-76
2023/10/01 14:20:37;;;;;;;;;;;;;;;;;;5054955;28;19908;-76
2023/10/01 14:23:06;;;;;;;;;;;;;;;;;;5053608;28;20050;-75
2023/10/01 14:25:32;;;;;;;;;;;;;;;;;;5054677;28;19932;-75
2023/10/01 14:28:00;;;;;;;;;;;;;;;;;;5044306;28;20393;-76
2023/10/01 14:30:26;;;;;;;;;;;;;;;;;;5056209;28;20376;-75
2023/10/01 14:32:54;;;;;;;;;;;;;;;;;;5033822;28;19909;-76
2023/10/01 14:35:20;;;;;;;;;;;;;;;;;;5044120;28;19998;-74
2023/10/01 14:37:56;;;;;;;;;;;;;;;;;;5046626;28;23179;-75
2023/10/01 14:40:22;;;;;;;;;;;;;;;;;;5047099;28;20008;-76
2023/10/01 14:42:48;;;;;;;;;;;;;;;;;;5035184;28;20372;-74
2023/10/01 14:45:16;;;;;;;;;;;;;;;;;;5053766;28;19920;-76
2023/10/01 14:47:44;;;;;;;;;;;;;;;;;;5046718;28;19909;-75
2023/10/01 14:50:14;;;;;;;;;;;;;;;;;;5047009;28;19972;-75
2023/10/01 14:52:41;;;;;;;;;;;;;;;;;;5035345;28;19908;-75
2023/10/01 14:55:22;;;;;;;;;;;;;;;;;;5050755;28;19920;-77
2023/10/01 14:57:51;;;;;;;;;;;;;;;;;;5050953;28;20289;-75
2023/10/01 15:00:17;;;;;;;;;;;;;;;;;;5046612;28;19913;-75
2023/10/01 15:02:43;;;;;;;;;;;;;;;;;;5031817;28;19963;-75
2023/10/01 15:05:12;;;;;;;;;;;;;;;;;;5032800;28;19916;-76
2023/10/01 15:07:38;;;;;;;;;;;;;;;;;;5052798;28;19916;-76
2023/10/01 15:10:05;;;;;;;;;;;;;;;;;;5057495;28;19913;-75
2023/10/01 15:12:31;;;;;;;;;;;;;;;;;;5049419;28;20361;-75
2023/10/01 15:14:56;;;;;;;;;;;;;;;;;;5050883;28;19952;-75
2023/10/01 15:17:25;;;;;;;;;;;;;;;;;;5049695;28;19917;-75
2023/10/01 15:19:53;;;;;;;;;;;;;;;;;;5026611;28;19909;-76
2023/10/01 15:22:19;;;;;;;;;;;;;;;;;;5061640;28;19908;-76
2023/10/01 15:24:49;;;;;;;;;;;;;;;;;;5045784;28;19916;-76
2023/10/01 15:27:24;;;;;;;;;;;;;;;;;;5047349;28;20330;-76
2023/10/01 15:29:59;;;;;;;;;;;;;;;;;;5045916;28;19909;-75
2023/10/01 15:32:29;;;;;;;;;;;;;;;;;;5056541;28;20380;-76
2023/10/01 15:35:03;;;;;;;;;;;;;;;;;;5032944;28;20377;-76
2023/10/01 15:37:29;;;;;;;;;;;;;;;;;;5043144;28;19909;-75
2023/10/01 15:39:58;;;;;;;;;;;;;;;;;;5042727;28;19916;-75
2023/10/01 15:42:34;;;;;;;;;;;;;;;;;;5059181;28;19909;-74
2023/10/01 15:45:15;;;;;;;;;;;;;;;;;;5034286;28;19908;-75
2023/10/01 15:47:54;;;;;;;;;;;;;;;;;;5043107;28;19999;-77
2023/10/01 15:50:37;;;;;;;;;;;;;;;;;;5055636;28;19909;-76
2023/10/01 15:53:04;;;;;;;;;;;;;;;;;;5035223;28;20372;-76
2023/10/01 15:55:33;;;;;;;;;;;;;;;;;;5046747;28;19920;-76
2023/10/01 15:58:02;;;;;;;;;;;;;;;;;;5045311;28;19919;-76
2023/10/01 16:00:30;;;;;;;;;;;;;;;;;;5045796;28;19919;-76
2023/10/01 16:03:02;;;;;;;;;;;;;;;;;;5035342;28;20384;-76
2023/10/01 16:05:28;;;;;;;;;;;;;;;;;;5035115;28;19916;-75
2023/10/01 16:07:57;;;;;;;;;;;;;;;;;;5052887;28;19908;-76
2023/10/01 16:10:23;;;;;;;;;;;;;;;;;;5061080;28;20003;-75
2023/10/01 16:12:51;;;;;;;;;;;;;;;;;;5053651;28;20356;-75
2023/10/01 16:15:20;;;;;;;;;;;;;;;;;;5043170;28;20299;-76
2023/10/01 16:17:46;;;;;;;;;;;;;;;;;;5045441;28;19948;-76
2023/10/01 16:20:18;;;;;;;;;;;;;;;;;;5045695;28;20344;-75
2023/10/01 16:22:53;;;;;;;;;;;;;;;;;;5053345;28;19919;-76
2023/10/01 16:25:19;;;;;;;;;;;;;;;;;;5052280;28;19908;-75
2023/10/01 16:27:45;;;;;;;;;;;;;;;;;;5038667;28;20362;-76
2023/10/01 16:30:11;;;;;;;;;;;;;;;;;;5053374;28;19987;-75
2023/10/01 16:32:37;;;;;;;;;;;;;;;;;;5026298;28;20376;-75
2023/10/01 16:35:16;;;;;;;;;;;;;;;;;;5051584;28;19914;-74
2023/10/01 16:37:43;;;;;;;;;;;;;;;;;;5037613;28;20372;-74
2023/10/01 16:40:18;;;;;;;;;;;;;;;;;;5053227;28;19976;-75
2023/10/01 16:42:49;;;;;;;;;;;;;;;;;;5055179;28;19916;-75
2023/10/01 16:45:18;;;;;;;;;;;;;;;;;;5042267;28;19913;-75
2023/10/01 16:47:48;;;;;;;;;;;;;;;;;;5035187;28;19916;-74
2023/10/01 16:50:14;;;;;;;;;;;;;;;;;;5054126;28;19912;-75
2023/10/01 16:52:43;;;;;;;;;;;;;;;;;;5060290;28;20372;-74
2023/10/01 16:55:09;;;;;;;;;;;;;;;;;;5063985;28;19920;-76
2023/10/01 16:57:38;;;;;;;;;;;;;;;;;;5044223;28;19936;-76
2023/10/01 17:00:13;;;;;;;;;;;;;;;;;;5033662;28;19916;-75
2023/10/01 17:02:40;;;;;;;;;;;;;;;;;;5032095;28;19947;-73
2023/10/01 17:05:07;;;;;;;;;;;;;;;;;;5041038;28;19909;-75
2023/10/01 17:07:33;;;;;;;;;;;;;;;;;;5055416;28;19910;-73
2023/10/01 17:10:00;;;;;;;;;;;;;;;;;;5065885;28;19908;-75
2023/10/01 17:12:27;;;;;;;;;;;;;;;;;;5042055;28;20007;-73
2023/10/01 17:14:53;;;;;;;;;;;;;;;;;;5044602;28;19912;-75
2023/10/01 17:17:19;;;;;;;;;;;;;;;;;;5020334;28;19939;-75
2023/10/01 17:19:46;;;;;;;;;;;;;;;;;;5050480;28;19916;-76
2023/10/01 17:22:12;;;;;;;;;;;;;;;;;;5051699;28;19964;-75
2023/10/01 17:24:43;;;;;;;;;;;;;;;;;;5051259;28;20335;-73
2023/10/01 17:27:16;;;;;;;;;;;;;;;;;;5051018;28;20004;-72
2023/10/01 17:29:42;;;;;;;;;;;;;;;;;;5044420;28;19917;-73
2023/10/01 17:32:12;;;;;;;;;;;;;;;;;;5050754;28;20293;-73
2023/10/01 17:34:39;;;;;;;;;;;;;;;;;;5043916;28;19913;-73
2023/10/01 17:37:07;;;;;;;;;;;;;;;;;;5030580;28;19909;-74
2023/10/01 17:39:33;;;;;;;;;;;;;;;;;;5057088;28;19913;-73
2023/10/01 17:41:59;;;;;;;;;;;;;;;;;;5049232;28;19909;-74
2023/10/01 17:44:26;;;;;;;;;;;;;;;;;;5045359;28;19936;-74
2023/10/01 17:46:56;;;;;;;;;;;;;;;;;;5043831;28;19909;-72
2023/10/01 17:49:26;;;;;;;;;;;;;;;;;;5046654;28;19909;-73
2023/10/01 17:51:54;;;;;;;;;;;;;;;;;;5050149;28;19915;-74
2023/10/01 17:54:20;;;;;;;;;;;;;;;;;;5043997;28;19909;-74
2023/10/01 17:56:46;;;;;;;;;;;;;;;;;;5051529;28;20420;-74
2023/10/01 17:59:12;;;;;;;;;;;;;;;;;;5044712;28;19909;-71
2023/10/01 18:01:37;;;;;;;;;;;;;;;;;;5044767;28;19916;-73
2023/10/01 18:04:08;;;;;;;;;;;;;;;;;;5052028;28;20517;-74
2023/10/01 18:06:34;;;;;;;;;;;;;;;;;;5044486;28;19913;-73
2023/10/01 18:09:00;;;;;;;;;;;;;;;;;;5034449;28;19924;-74
2023/10/01 18:11:28;;;;;;;;;;;;;;;;;;5046962;28;20334;-74
2023/10/01 18:13:56;;;;;;;;;;;;;;;;;;5051095;28;20342;-74
2023/10/01 18:16:25;;;;;;;;;;;;;;;;;;5052512;28;19923;-74
2023/10/01 18:18:51;;;;;;;;;;;;;;;;;;5051533;28;20381;-73
2023/10/01 18:21:17;;;;;;;;;;;;;;;;;;5047483;28;19909;-74